Terminal Aerodrome Forecast
Issued by NWS

Current Version | Previous Version | Text Only | Print | Product List | Glossary On
Versions: 1 2 3 4 5 6 7 8 9 10 11 12
515
FTUS42 KILM 272332
TAFCRE
TAF
KCRE 272332Z 2800/2824 14006KT P6SM SCT040 BKN250
     FM280900 04004KT P6SM SCT013 SCT080 BKN250
     FM281300 06011KT P6SM VCSH SCT030 BKN080
      TEMPO 2814/2818 5SM SHRA BKN030
     FM281800 09010KT 6SM -SHRA OVC020=

USA.gov is the U.S. government's official web portal to all federal, state and local government web resources and services.